Armuchee, Georgia
Current Conditions -  °F | °C
As of 6:33 PM on Saturday 20 Dec 2014 (Local Time) from KRMG Reporting Station
Scattered Clouds Scattered Clouds  
Wind Chill: 45°   Ceiling: Unl
Heat Index: 45°   Visibility: 9mi
Dew Point: 42°   Wind: 0mph
Humidity: 90%   Direction: NA
Pressure: 30.19"   Gusts: NA
Location:  34.39°N, 85.18°W
Report Text: KRMG 202333Z AUTO 00000KT 9SM SCT026 07/06 A3019 RMK AO2 T00720056
Loading
Personal Weather Stations






























Interactive Weather Map New forecast layout! Learn more

10-Day Weather Forecast

Advertisements
Track Severe Weather on mobile